sensor_id;sensor_type;location;lat;lon;timestamp;temperature;humidity
70708;SHT30;58277;47.316;18.908;2022-12-29T00:01:16;-0.31;91.23
70708;SHT30;58277;47.316;18.908;2022-12-29T00:03:39;-0.31;91.20
70708;SHT30;58277;47.316;18.908;2022-12-29T00:06:02;-0.27;91.16
70708;SHT30;58277;47.316;18.908;2022-12-29T00:08:25;-0.32;91.08
70708;SHT30;58277;47.316;18.908;2022-12-29T00:11:02;-0.34;91.08
70708;SHT30;58277;47.316;18.908;2022-12-29T00:13:25;-0.35;91.05
70708;SHT30;58277;47.316;18.908;2022-12-29T00:16:06;-0.37;91.11
70708;SHT30;58277;47.316;18.908;2022-12-29T00:18:29;-0.39;91.16
70708;SHT30;58277;47.316;18.908;2022-12-29T00:20:54;-0.37;91.14
70708;SHT30;58277;47.316;18.908;2022-12-29T00:23:36;-0.39;91.19
70708;SHT30;58277;47.316;18.908;2022-12-29T00:26:31;-0.38;91.19
70708;SHT30;58277;47.316;18.908;2022-12-29T00:29:12;-0.39;91.34
70708;SHT30;58277;47.316;18.908;2022-12-29T00:31:54;-0.42;91.28
70708;SHT30;58277;47.316;18.908;2022-12-29T00:34:35;-0.41;91.37
70708;SHT30;58277;47.316;18.908;2022-12-29T00:37:16;-0.32;91.31
70708;SHT30;58277;47.316;18.908;2022-12-29T00:39:39;-0.41;91.04
70708;SHT30;58277;47.316;18.908;2022-12-29T00:42:21;-0.46;91.29
70708;SHT30;58277;47.316;18.908;2022-12-29T00:45:02;-0.41;91.16
70708;SHT30;58277;47.316;18.908;2022-12-29T00:47:25;-0.42;90.97
70708;SHT30;58277;47.316;18.908;2022-12-29T00:49:48;-0.37;90.85
70708;SHT30;58277;47.316;18.908;2022-12-29T00:52:12;-0.42;91.22
70708;SHT30;58277;47.316;18.908;2022-12-29T00:54:37;-0.37;91.09
70708;SHT30;58277;47.316;18.908;2022-12-29T00:57:01;-0.38;90.96
70708;SHT30;58277;47.316;18.908;2022-12-29T00:59:25;-0.52;91.30
70708;SHT30;58277;47.316;18.908;2022-12-29T01:01:48;-0.56;91.52
70708;SHT30;58277;47.316;18.908;2022-12-29T01:04:11;-0.51;91.44
70708;SHT30;58277;47.316;18.908;2022-12-29T01:06:36;-0.55;91.41
70708;SHT30;58277;47.316;18.908;2022-12-29T01:08:59;-0.51;91.41
70708;SHT30;58277;47.316;18.908;2022-12-29T01:11:40;-0.55;91.36
70708;SHT30;58277;47.316;18.908;2022-12-29T01:14:03;-0.46;91.22
70708;SHT30;58277;47.316;18.908;2022-12-29T01:16:25;-0.48;91.21
70708;SHT30;58277;47.316;18.908;2022-12-29T01:18:49;-0.46;91.25
70708;SHT30;58277;47.316;18.908;2022-12-29T01:21:12;-0.37;91.05
70708;SHT30;58277;47.316;18.908;2022-12-29T01:23:35;-0.44;91.13
70708;SHT30;58277;47.316;18.908;2022-12-29T01:26:11;-0.44;91.13
70708;SHT30;58277;47.316;18.908;2022-12-29T01:28:35;-0.45;91.09
70708;SHT30;58277;47.316;18.908;2022-12-29T01:31:01;-0.41;91.06
70708;SHT30;58277;47.316;18.908;2022-12-29T01:33:24;-0.37;90.77
70708;SHT30;58277;47.316;18.908;2022-12-29T01:35:46;-0.45;90.84
70708;SHT30;58277;47.316;18.908;2022-12-29T01:38:09;-0.44;91.07
70708;SHT30;58277;47.316;18.908;2022-12-29T01:40:32;-0.48;91.40
70708;SHT30;58277;47.316;18.908;2022-12-29T01:42:54;-0.45;91.33
70708;SHT30;58277;47.316;18.908;2022-12-29T01:45:18;-0.37;91.03
70708;SHT30;58277;47.316;18.908;2022-12-29T01:48:02;-0.42;90.83
70708;SHT30;58277;47.316;18.908;2022-12-29T01:50:38;-0.55;91.33
70708;SHT30;58277;47.316;18.908;2022-12-29T01:53:07;-0.61;91.58
70708;SHT30;58277;47.316;18.908;2022-12-29T01:55:43;-0.66;91.66
70708;SHT30;58277;47.316;18.908;2022-12-29T01:58:07;-0.66;91.76
70708;SHT30;58277;47.316;18.908;2022-12-29T02:00:30;-0.66;91.79
70708;SHT30;58277;47.316;18.908;2022-12-29T02:02:53;-0.65;91.97
70708;SHT30;58277;47.316;18.908;2022-12-29T02:05:28;-0.64;91.87
70708;SHT30;58277;47.316;18.908;2022-12-29T02:07:54;-0.58;91.98
70708;SHT30;58277;47.316;18.908;2022-12-29T02:10:19;-0.64;91.98
70708;SHT30;58277;47.316;18.908;2022-12-29T02:12:45;-0.56;92.06
70708;SHT30;58277;47.316;18.908;2022-12-29T02:15:08;-0.56;91.61
70708;SHT30;58277;47.316;18.908;2022-12-29T02:23:05;-0.65;92.14
70708;SHT30;58277;47.316;18.908;2022-12-29T02:28:41;-0.59;91.96
70708;SHT30;58277;47.316;18.908;2022-12-29T02:36:49;-0.64;92.10
70708;SHT30;58277;47.316;18.908;2022-12-29T02:52:47;-0.75;91.85
70708;SHT30;58277;47.316;18.908;2022-12-29T02:55:11;-0.73;91.85
70708;SHT30;58277;47.316;18.908;2022-12-29T02:57:35;-0.76;91.81
70708;SHT30;58277;47.316;18.908;2022-12-29T03:08:10;-0.83;91.99
70708;SHT30;58277;47.316;18.908;2022-12-29T03:21:36;-0.87;91.89
70708;SHT30;58277;47.316;18.908;2022-12-29T03:24:24;-0.86;92.16
70708;SHT30;58277;47.316;18.908;2022-12-29T03:26:51;-0.86;92.10
70708;SHT30;58277;47.316;18.908;2022-12-29T03:29:16;-0.86;92.00
70708;SHT30;58277;47.316;18.908;2022-12-29T03:31:42;-0.87;92.02
70708;SHT30;58277;47.316;18.908;2022-12-29T03:34:05;-0.89;91.96
70708;SHT30;58277;47.316;18.908;2022-12-29T03:36:39;-0.90;92.06
70708;SHT30;58277;47.316;18.908;2022-12-29T03:39:09;-0.89;91.99
70708;SHT30;58277;47.316;18.908;2022-12-29T03:41:36;-0.92;92.09
70708;SHT30;58277;47.316;18.908;2022-12-29T03:43:59;-0.90;92.15
70708;SHT30;58277;47.316;18.908;2022-12-29T03:46:22;-0.90;92.19
70708;SHT30;58277;47.316;18.908;2022-12-29T03:48:45;-0.92;92.07
70708;SHT30;58277;47.316;18.908;2022-12-29T03:51:08;-0.92;92.05
70708;SHT30;58277;47.316;18.908;2022-12-29T03:53:31;-0.89;92.02
70708;SHT30;58277;47.316;18.908;2022-12-29T03:55:55;-0.87;91.89
70708;SHT30;58277;47.316;18.908;2022-12-29T03:58:18;-0.85;91.84
70708;SHT30;58277;47.316;18.908;2022-12-29T04:00:56;-0.90;91.86
70708;SHT30;58277;47.316;18.908;2022-12-29T04:03:19;-0.87;91.92
70708;SHT30;58277;47.316;18.908;2022-12-29T04:05:42;-0.85;91.84
70708;SHT30;58277;47.316;18.908;2022-12-29T04:08:05;-0.80;91.62
70708;SHT30;58277;47.316;18.908;2022-12-29T04:10:28;-0.85;91.58
70708;SHT30;58277;47.316;18.908;2022-12-29T04:12:53;-0.85;91.65
70708;SHT30;58277;47.316;18.908;2022-12-29T04:15:17;-0.86;91.60
70708;SHT30;58277;47.316;18.908;2022-12-29T04:17:40;-0.86;91.59
70708;SHT30;58277;47.316;18.908;2022-12-29T04:20:03;-0.87;91.63
70708;SHT30;58277;47.316;18.908;2022-12-29T04:22:46;-0.90;91.56
70708;SHT30;58277;47.316;18.908;2022-12-29T04:25:09;-0.90;91.56
70708;SHT30;58277;47.316;18.908;2022-12-29T04:27:32;-0.92;91.74
70708;SHT30;58277;47.316;18.908;2022-12-29T04:30:22;-0.90;91.79
70708;SHT30;58277;47.316;18.908;2022-12-29T04:32:59;-0.87;91.69
70708;SHT30;58277;47.316;18.908;2022-12-29T04:35:23;-0.86;91.70
70708;SHT30;58277;47.316;18.908;2022-12-29T04:37:45;-0.85;91.70
70708;SHT30;58277;47.316;18.908;2022-12-29T04:40:09;-0.89;91.64
70708;SHT30;58277;47.316;18.908;2022-12-29T04:42:31;-0.85;91.62
70708;SHT30;58277;47.316;18.908;2022-12-29T04:44:54;-0.82;91.51
70708;SHT30;58277;47.316;18.908;2022-12-29T04:47:30;-0.79;91.40
70708;SHT30;58277;47.316;18.908;2022-12-29T04:50:00;-0.79;91.29
70708;SHT30;58277;47.316;18.908;2022-12-29T04:52:35;-0.80;91.26
70708;SHT30;58277;47.316;18.908;2022-12-29T04:54:58;-0.83;91.35
70708;SHT30;58277;47.316;18.908;2022-12-29T04:57:21;-0.83;91.46
70708;SHT30;58277;47.316;18.908;2022-12-29T04:59:48;-0.86;91.40
70708;SHT30;58277;47.316;18.908;2022-12-29T05:02:10;-0.83;91.39
70708;SHT30;58277;47.316;18.908;2022-12-29T05:04:33;-0.82;91.41
70708;SHT30;58277;47.316;18.908;2022-12-29T05:06:58;-0.82;91.25
70708;SHT30;58277;47.316;18.908;2022-12-29T05:09:21;-0.82;91.17
70708;SHT30;58277;47.316;18.908;2022-12-29T05:11:43;-0.80;91.20
70708;SHT30;58277;47.316;18.908;2022-12-29T05:14:06;-0.83;91.18
70708;SHT30;58277;47.316;18.908;2022-12-29T05:16:30;-0.82;91.22
70708;SHT30;58277;47.316;18.908;2022-12-29T05:18:53;-0.86;91.25
70708;SHT30;58277;47.316;18.908;2022-12-29T05:21:16;-0.85;91.29
70708;SHT30;58277;47.316;18.908;2022-12-29T05:23:39;-0.90;91.31
70708;SHT30;58277;47.316;18.908;2022-12-29T05:26:02;-0.92;91.35
70708;SHT30;58277;47.316;18.908;2022-12-29T05:28:45;-0.93;91.38
70708;SHT30;58277;47.316;18.908;2022-12-29T05:31:12;-0.94;91.28
70708;SHT30;58277;47.316;18.908;2022-12-29T05:33:35;-0.90;91.26
70708;SHT30;58277;47.316;18.908;2022-12-29T05:36:04;-0.92;91.15
70708;SHT30;58277;47.316;18.908;2022-12-29T05:38:27;-0.92;91.23
70708;SHT30;58277;47.316;18.908;2022-12-29T05:40:49;-0.93;91.40
70708;SHT30;58277;47.316;18.908;2022-12-29T05:43:35;-0.93;91.40
70708;SHT30;58277;47.316;18.908;2022-12-29T05:46:31;-0.99;91.56
70708;SHT30;58277;47.316;18.908;2022-12-29T05:49:11;-1.00;91.74
70708;SHT30;58277;47.316;18.908;2022-12-29T05:52:12;-1.00;91.86
70708;SHT30;58277;47.316;18.908;2022-12-29T05:54:36;-0.99;91.81
70708;SHT30;58277;47.316;18.908;2022-12-29T05:57:04;-0.99;91.72
70708;SHT30;58277;47.316;18.908;2022-12-29T05:59:28;-1.01;91.70
70708;SHT30;58277;47.316;18.908;2022-12-29T06:01:51;-0.99;91.64
70708;SHT30;58277;47.316;18.908;2022-12-29T06:04:14;-0.99;91.56
70708;SHT30;58277;47.316;18.908;2022-12-29T06:06:37;-0.93;91.52
70708;SHT30;58277;47.316;18.908;2022-12-29T06:09:05;-0.94;91.46
70708;SHT30;58277;47.316;18.908;2022-12-29T06:11:28;-0.97;91.40
70708;SHT30;58277;47.316;18.908;2022-12-29T06:13:53;-0.99;91.52
70708;SHT30;58277;47.316;18.908;2022-12-29T06:16:18;-0.99;91.62
70708;SHT30;58277;47.316;18.908;2022-12-29T06:18:41;-0.97;91.58
70708;SHT30;58277;47.316;18.908;2022-12-29T06:21:04;-1.00;91.53
70708;SHT30;58277;47.316;18.908;2022-12-29T06:23:27;-0.99;91.66
70708;SHT30;58277;47.316;18.908;2022-12-29T06:25:50;-1.00;91.56
70708;SHT30;58277;47.316;18.908;2022-12-29T06:28:13;-0.99;91.52
70708;SHT30;58277;47.316;18.908;2022-12-29T06:30:36;-1.00;91.49
70708;SHT30;58277;47.316;18.908;2022-12-29T06:32:59;-0.97;91.47
70708;SHT30;58277;47.316;18.908;2022-12-29T06:35:23;-0.99;91.49
70708;SHT30;58277;47.316;18.908;2022-12-29T06:37:46;-0.93;91.53
70708;SHT30;58277;47.316;18.908;2022-12-29T06:40:10;-0.90;91.32
70708;SHT30;58277;47.316;18.908;2022-12-29T06:43:06;-0.87;91.23
70708;SHT30;58277;47.316;18.908;2022-12-29T06:45:39;-0.86;91.25
70708;SHT30;58277;47.316;18.908;2022-12-29T06:48:03;-0.83;91.19
70708;SHT30;58277;47.316;18.908;2022-12-29T06:50:25;-0.80;91.07
70708;SHT30;58277;47.316;18.908;2022-12-29T06:52:48;-0.76;91.04
70708;SHT30;58277;47.316;18.908;2022-12-29T06:55:11;-0.70;90.87
70708;SHT30;58277;47.316;18.908;2022-12-29T06:57:33;-0.65;90.78
70708;SHT30;58277;47.316;18.908;2022-12-29T06:59:56;-0.64;90.62
70708;SHT30;58277;47.316;18.908;2022-12-29T07:02:19;-0.54;90.45
70708;SHT30;58277;47.316;18.908;2022-12-29T07:04:42;-0.51;90.20
70708;SHT30;58277;47.316;18.908;2022-12-29T07:07:04;-0.45;90.14
70708;SHT30;58277;47.316;18.908;2022-12-29T07:09:27;-0.31;89.80
70708;SHT30;58277;47.316;18.908;2022-12-29T07:11:50;-0.32;89.62
70708;SHT30;58277;47.316;18.908;2022-12-29T07:14:14;-0.31;89.59
70708;SHT30;58277;47.316;18.908;2022-12-29T07:16:36;-0.32;89.60
70708;SHT30;58277;47.316;18.908;2022-12-29T07:19:00;-0.19;89.33
70708;SHT30;58277;47.316;18.908;2022-12-29T07:21:23;-0.19;89.07
70708;SHT30;58277;47.316;18.908;2022-12-29T07:23:45;-0.21;89.10
70708;SHT30;58277;47.316;18.908;2022-12-29T07:26:11;-0.18;89.14
70708;SHT30;58277;47.316;18.908;2022-12-29T07:28:35;-0.18;88.81
70708;SHT30;58277;47.316;18.908;2022-12-29T07:30:58;-0.17;88.83
70708;SHT30;58277;47.316;18.908;2022-12-29T07:33:21;-0.04;88.58
70708;SHT30;58277;47.316;18.908;2022-12-29T07:35:43;-0.03;88.49
70708;SHT30;58277;47.316;18.908;2022-12-29T07:38:06;0.06;88.29
70708;SHT30;58277;47.316;18.908;2022-12-29T07:40:29;0.11;88.20
70708;SHT30;58277;47.316;18.908;2022-12-29T07:42:51;0.10;88.10
70708;SHT30;58277;47.316;18.908;2022-12-29T07:45:22;0.11;88.31
70708;SHT30;58277;47.316;18.908;2022-12-29T07:47:58;0.18;87.91
70708;SHT30;58277;47.316;18.908;2022-12-29T07:50:20;0.13;88.09
70708;SHT30;58277;47.316;18.908;2022-12-29T07:52:43;0.21;88.11
70708;SHT30;58277;47.316;18.908;2022-12-29T07:55:07;0.20;87.86
70708;SHT30;58277;47.316;18.908;2022-12-29T07:57:30;0.21;87.92
70708;SHT30;58277;47.316;18.908;2022-12-29T07:59:53;0.30;88.10
70708;SHT30;58277;47.316;18.908;2022-12-29T08:02:16;0.41;87.39
70708;SHT30;58277;47.316;18.908;2022-12-29T08:04:39;0.47;87.23
70708;SHT30;58277;47.316;18.908;2022-12-29T08:07:02;0.57;87.04
70708;SHT30;58277;47.316;18.908;2022-12-29T08:09:24;0.62;86.78
70708;SHT30;58277;47.316;18.908;2022-12-29T08:11:47;0.62;86.91
70708;SHT30;58277;47.316;18.908;2022-12-29T08:14:10;0.66;86.42
70708;SHT30;58277;47.316;18.908;2022-12-29T08:16:33;0.64;86.53
70708;SHT30;58277;47.316;18.908;2022-12-29T08:19:16;0.57;86.79
70708;SHT30;58277;47.316;18.908;2022-12-29T08:22:00;0.59;86.79
70708;SHT30;58277;47.316;18.908;2022-12-29T08:24:22;0.61;86.98
70708;SHT30;58277;47.316;18.908;2022-12-29T08:26:45;0.75;86.60
70708;SHT30;58277;47.316;18.908;2022-12-29T08:29:08;0.83;86.00
70708;SHT30;58277;47.316;18.908;2022-12-29T08:31:30;0.90;85.87
70708;SHT30;58277;47.316;18.908;2022-12-29T08:33:53;0.90;86.03
70708;SHT30;58277;47.316;18.908;2022-12-29T08:36:16;0.95;86.13
70708;SHT30;58277;47.316;18.908;2022-12-29T08:38:39;1.06;85.76
70708;SHT30;58277;47.316;18.908;2022-12-29T08:41:02;0.87;86.00
70708;SHT30;58277;47.316;18.908;2022-12-29T08:43:25;0.80;86.71
70708;SHT30;58277;47.316;18.908;2022-12-29T08:45:47;0.80;86.64
70708;SHT30;58277;47.316;18.908;2022-12-29T08:48:10;0.85;86.50
70708;SHT30;58277;47.316;18.908;2022-12-29T08:50:33;0.96;86.60
70708;SHT30;58277;47.316;18.908;2022-12-29T08:52:56;0.93;86.13
70708;SHT30;58277;47.316;18.908;2022-12-29T08:55:19;0.82;86.43
70708;SHT30;58277;47.316;18.908;2022-12-29T08:57:42;0.75;86.93
70708;SHT30;58277;47.316;18.908;2022-12-29T09:00:10;0.64;87.30
70708;SHT30;58277;47.316;18.908;2022-12-29T09:02:34;0.62;87.68
70708;SHT30;58277;47.316;18.908;2022-12-29T09:04:56;0.64;87.57
70708;SHT30;58277;47.316;18.908;2022-12-29T09:07:24;0.59;87.59
70708;SHT30;58277;47.316;18.908;2022-12-29T09:09:47;0.65;87.67
70708;SHT30;58277;47.316;18.908;2022-12-29T09:12:10;0.66;87.81
70708;SHT30;58277;47.316;18.908;2022-12-29T09:14:33;0.75;87.71
70708;SHT30;58277;47.316;18.908;2022-12-29T09:16:56;0.97;86.99
70708;SHT30;58277;47.316;18.908;2022-12-29T09:19:37;1.04;86.43
70708;SHT30;58277;47.316;18.908;2022-12-29T09:22:00;1.10;86.02
70708;SHT30;58277;47.316;18.908;2022-12-29T09:24:22;1.22;85.59
70708;SHT30;58277;47.316;18.908;2022-12-29T09:26:45;1.19;85.81
70708;SHT30;58277;47.316;18.908;2022-12-29T09:29:08;1.28;85.98
70708;SHT30;58277;47.316;18.908;2022-12-29T09:31:31;1.52;85.35
70708;SHT30;58277;47.316;18.908;2022-12-29T09:33:54;1.55;84.76
70708;SHT30;58277;47.316;18.908;2022-12-29T09:36:17;1.50;85.29
70708;SHT30;58277;47.316;18.908;2022-12-29T09:38:40;1.48;85.40
70708;SHT30;58277;47.316;18.908;2022-12-29T09:47:17;1.73;84.72
70708;SHT30;58277;47.316;18.908;2022-12-29T09:49:48;1.76;84.85
70708;SHT30;58277;47.316;18.908;2022-12-29T09:52:19;1.73;84.82
70708;SHT30;58277;47.316;18.908;2022-12-29T09:57:40;1.73;84.99
70708;SHT30;58277;47.316;18.908;2022-12-29T10:00:14;1.85;84.46
70708;SHT30;58277;47.316;18.908;2022-12-29T10:02:42;1.85;84.36
70708;SHT30;58277;47.316;18.908;2022-12-29T10:05:41;1.73;84.36
70708;SHT30;58277;47.316;18.908;2022-12-29T10:08:15;1.86;85.04
70708;SHT30;58277;47.316;18.908;2022-12-29T10:10:47;1.89;84.33
70708;SHT30;58277;47.316;18.908;2022-12-29T10:13:58;1.92;84.57
70708;SHT30;58277;47.316;18.908;2022-12-29T10:22:16;1.71;85.46
70708;SHT30;58277;47.316;18.908;2022-12-29T10:24:44;1.71;85.74
70708;SHT30;58277;47.316;18.908;2022-12-29T10:27:11;1.76;85.49
70708;SHT30;58277;47.316;18.908;2022-12-29T10:29:38;1.85;85.31
70708;SHT30;58277;47.316;18.908;2022-12-29T10:32:06;2.03;85.00
70708;SHT30;58277;47.316;18.908;2022-12-29T10:34:45;2.03;85.03
70708;SHT30;58277;47.316;18.908;2022-12-29T10:39:55;1.93;85.08
70708;SHT30;58277;47.316;18.908;2022-12-29T10:42:29;1.99;85.02
70708;SHT30;58277;47.316;18.908;2022-12-29T10:44:55;2.06;84.97
70708;SHT30;58277;47.316;18.908;2022-12-29T10:47:23;2.19;84.54
70708;SHT30;58277;47.316;18.908;2022-12-29T10:49:47;2.23;84.62
70708;SHT30;58277;47.316;18.908;2022-12-29T10:52:11;2.26;84.45
70708;SHT30;58277;47.316;18.908;2022-12-29T10:54:53;2.27;84.25
70708;SHT30;58277;47.316;18.908;2022-12-29T10:57:33;2.30;84.70
70708;SHT30;58277;47.316;18.908;2022-12-29T10:59:57;2.37;84.22
70708;SHT30;58277;47.316;18.908;2022-12-29T11:02:30;2.41;84.40
70708;SHT30;58277;47.316;18.908;2022-12-29T11:07:37;2.52;83.88
70708;SHT30;58277;47.316;18.908;2022-12-29T11:13:16;2.71;83.39
70708;SHT30;58277;47.316;18.908;2022-12-29T11:15:46;2.68;83.41
70708;SHT30;58277;47.316;18.908;2022-12-29T11:18:33;2.74;83.60
70708;SHT30;58277;47.316;18.908;2022-12-29T11:21:01;2.81;83.74
70708;SHT30;58277;47.316;18.908;2022-12-29T11:23:36;2.84;83.22
70708;SHT30;58277;47.316;18.908;2022-12-29T11:28:28;2.93;83.12
70708;SHT30;58277;47.316;18.908;2022-12-29T11:31:00;2.99;83.02
70708;SHT30;58277;47.316;18.908;2022-12-29T11:33:30;3.07;82.77
70708;SHT30;58277;47.316;18.908;2022-12-29T11:35:58;3.05;82.80
70708;SHT30;58277;47.316;18.908;2022-12-29T11:38:25;3.06;82.78
70708;SHT30;58277;47.316;18.908;2022-12-29T11:40:50;3.06;82.84
70708;SHT30;58277;47.316;18.908;2022-12-29T11:43:29;3.19;82.72
70708;SHT30;58277;47.316;18.908;2022-12-29T11:45:56;3.36;82.44
70708;SHT30;58277;47.316;18.908;2022-12-29T11:48:20;3.34;82.51
70708;SHT30;58277;47.316;18.908;2022-12-29T11:50:51;3.31;82.38
70708;SHT30;58277;47.316;18.908;2022-12-29T11:53:18;3.40;82.48
70708;SHT30;58277;47.316;18.908;2022-12-29T11:55:54;3.43;82.29
70708;SHT30;58277;47.316;18.908;2022-12-29T11:58:18;3.47;82.10
70708;SHT30;58277;47.316;18.908;2022-12-29T12:00:41;3.53;82.24
70708;SHT30;58277;47.316;18.908;2022-12-29T12:03:17;3.60;82.29
70708;SHT30;58277;47.316;18.908;2022-12-29T12:05:55;3.70;82.52
70708;SHT30;58277;47.316;18.908;2022-12-29T12:11:06;3.73;81.51
70708;SHT30;58277;47.316;18.908;2022-12-29T12:16:25;3.71;81.84
70708;SHT30;58277;47.316;18.908;2022-12-29T12:19:04;3.67;81.85
70708;SHT30;58277;47.316;18.908;2022-12-29T12:21:38;3.71;81.59
70708;SHT30;58277;47.316;18.908;2022-12-29T12:30:04;3.85;81.19
70708;SHT30;58277;47.316;18.908;2022-12-29T12:32:46;3.93;81.49
70708;SHT30;58277;47.316;18.908;2022-12-29T12:35:17;3.82;81.53
70708;SHT30;58277;47.316;18.908;2022-12-29T12:38:33;3.81;81.71
70708;SHT30;58277;47.316;18.908;2022-12-29T12:55:27;3.85;82.13
70708;SHT30;58277;47.316;18.908;2022-12-29T13:06:18;4.02;82.20
70708;SHT30;58277;47.316;18.908;2022-12-29T13:11:52;4.12;82.24
70708;SHT30;58277;47.316;18.908;2022-12-29T13:19:43;4.19;82.45
70708;SHT30;58277;47.316;18.908;2022-12-29T13:22:23;4.20;82.51
70708;SHT30;58277;47.316;18.908;2022-12-29T13:30:03;4.26;82.62
70708;SHT30;58277;47.316;18.908;2022-12-29T13:37:26;4.26;81.62
70708;SHT30;58277;47.316;18.908;2022-12-29T13:39:57;4.19;81.76
70708;SHT30;58277;47.316;18.908;2022-12-29T13:42:26;4.13;81.93
70708;SHT30;58277;47.316;18.908;2022-12-29T13:44:59;4.13;82.13
70708;SHT30;58277;47.316;18.908;2022-12-29T13:49:48;4.13;82.18
70708;SHT30;58277;47.316;18.908;2022-12-29T13:52:18;4.02;82.17
70708;SHT30;58277;47.316;18.908;2022-12-29T13:54:55;4.02;82.24
70708;SHT30;58277;47.316;18.908;2022-12-29T14:00:06;3.82;82.56
70708;SHT30;58277;47.316;18.908;2022-12-29T14:03:00;3.74;82.91
70708;SHT30;58277;47.316;18.908;2022-12-29T14:05:29;3.71;82.80
70708;SHT30;58277;47.316;18.908;2022-12-29T14:08:01;3.58;83.03
70708;SHT30;58277;47.316;18.908;2022-12-29T14:10:37;3.58;83.23
70708;SHT30;58277;47.316;18.908;2022-12-29T14:15:39;3.41;83.65
70708;SHT30;58277;47.316;18.908;2022-12-29T14:18:10;3.27;84.06
70708;SHT30;58277;47.316;18.908;2022-12-29T14:20:38;3.23;84.30
70708;SHT30;58277;47.316;18.908;2022-12-29T14:26:00;3.15;84.51
70708;SHT30;58277;47.316;18.908;2022-12-29T14:28:30;3.07;84.72
70708;SHT30;58277;47.316;18.908;2022-12-29T14:30:56;3.06;84.87
70708;SHT30;58277;47.316;18.908;2022-12-29T14:33:20;2.96;85.14
70708;SHT30;58277;47.316;18.908;2022-12-29T14:35:45;2.92;85.20
70708;SHT30;58277;47.316;18.908;2022-12-29T14:38:20;2.86;85.44
70708;SHT30;58277;47.316;18.908;2022-12-29T14:40:43;2.81;85.62
70708;SHT30;58277;47.316;18.908;2022-12-29T14:43:12;2.79;85.72
70708;SHT30;58277;47.316;18.908;2022-12-29T14:45:36;2.68;85.98
70708;SHT30;58277;47.316;18.908;2022-12-29T14:48:30;2.65;86.20
70708;SHT30;58277;47.316;18.908;2022-12-29T14:50:55;2.58;86.46
70708;SHT30;58277;47.316;18.908;2022-12-29T14:53:41;2.52;86.64
70708;SHT30;58277;47.316;18.908;2022-12-29T14:56:04;2.45;86.90
70708;SHT30;58277;47.316;18.908;2022-12-29T14:58:30;2.48;86.86
70708;SHT30;58277;47.316;18.908;2022-12-29T15:00:55;2.40;87.19
70708;SHT30;58277;47.316;18.908;2022-12-29T15:03:45;2.38;87.25
70708;SHT30;58277;47.316;18.908;2022-12-29T15:06:11;2.42;87.05
70708;SHT30;58277;47.316;18.908;2022-12-29T15:08:42;2.37;87.31
70708;SHT30;58277;47.316;18.908;2022-12-29T15:11:13;2.30;87.51
70708;SHT30;58277;47.316;18.908;2022-12-29T15:13:40;2.21;87.62
70708;SHT30;58277;47.316;18.908;2022-12-29T15:16:29;2.16;87.93
70708;SHT30;58277;47.316;18.908;2022-12-29T15:18:53;2.14;88.04
70708;SHT30;58277;47.316;18.908;2022-12-29T15:21:17;2.10;88.21
70708;SHT30;58277;47.316;18.908;2022-12-29T15:23:44;2.03;88.37
70708;SHT30;58277;47.316;18.908;2022-12-29T15:26:08;2.07;88.33
70708;SHT30;58277;47.316;18.908;2022-12-29T15:28:43;2.07;88.30
70708;SHT30;58277;47.316;18.908;2022-12-29T15:31:12;1.98;88.48
70708;SHT30;58277;47.316;18.908;2022-12-29T15:33:39;1.96;88.48
70708;SHT30;58277;47.316;18.908;2022-12-29T15:36:05;1.96;88.66
70708;SHT30;58277;47.316;18.908;2022-12-29T15:38:32;1.87;88.75
70708;SHT30;58277;47.316;18.908;2022-12-29T15:41:11;1.83;88.74
70708;SHT30;58277;47.316;18.908;2022-12-29T15:46:30;1.83;88.97
70708;SHT30;58277;47.316;18.908;2022-12-29T15:48:53;1.78;89.11
70708;SHT30;58277;47.316;18.908;2022-12-29T15:51:25;1.73;89.29
70708;SHT30;58277;47.316;18.908;2022-12-29T15:53:51;1.73;89.31
70708;SHT30;58277;47.316;18.908;2022-12-29T15:56:14;1.73;89.41
70708;SHT30;58277;47.316;18.908;2022-12-29T15:58:50;1.76;89.38
70708;SHT30;58277;47.316;18.908;2022-12-29T16:01:19;1.83;89.36
70708;SHT30;58277;47.316;18.908;2022-12-29T16:03:41;1.91;89.25
70708;SHT30;58277;47.316;18.908;2022-12-29T16:06:34;1.81;89.34
70708;SHT30;58277;47.316;18.908;2022-12-29T16:08:58;1.83;89.25
70708;SHT30;58277;47.316;18.908;2022-12-29T16:11:26;1.85;89.16
70708;SHT30;58277;47.316;18.908;2022-12-29T16:13:51;1.83;89.12
70708;SHT30;58277;47.316;18.908;2022-12-29T16:16:19;1.78;89.26
70708;SHT30;58277;47.316;18.908;2022-12-29T16:18:43;1.73;89.20
70708;SHT30;58277;47.316;18.908;2022-12-29T16:21:18;1.68;89.39
70708;SHT30;58277;47.316;18.908;2022-12-29T16:23:44;1.61;89.65
70708;SHT30;58277;47.316;18.908;2022-12-29T16:26:15;1.59;89.78
70708;SHT30;58277;47.316;18.908;2022-12-29T16:28:40;1.54;89.81
70708;SHT30;58277;47.316;18.908;2022-12-29T16:31:17;1.51;89.99
70708;SHT30;58277;47.316;18.908;2022-12-29T16:36:28;1.51;90.01
70708;SHT30;58277;47.316;18.908;2022-12-29T16:39:10;1.56;89.90
70708;SHT30;58277;47.316;18.908;2022-12-29T16:41:37;1.51;89.84
70708;SHT30;58277;47.316;18.908;2022-12-29T16:44:32;1.45;89.96
70708;SHT30;58277;47.316;18.908;2022-12-29T16:49:25;1.38;90.13
70708;SHT30;58277;47.316;18.908;2022-12-29T16:51:49;1.34;90.08
70708;SHT30;58277;47.316;18.908;2022-12-29T16:54:20;1.34;90.22
70708;SHT30;58277;47.316;18.908;2022-12-29T16:56:44;1.34;90.24
70708;SHT30;58277;47.316;18.908;2022-12-29T17:02:14;1.41;90.16
70708;SHT30;58277;47.316;18.908;2022-12-29T17:04:37;1.41;90.20
70708;SHT30;58277;47.316;18.908;2022-12-29T17:07:00;1.34;90.19
70708;SHT30;58277;47.316;18.908;2022-12-29T17:09:28;1.30;90.34
70708;SHT30;58277;47.316;18.908;2022-12-29T17:11:54;1.30;90.25
70708;SHT30;58277;47.316;18.908;2022-12-29T17:17:02;1.14;90.59
70708;SHT30;58277;47.316;18.908;2022-12-29T17:19:36;1.12;90.78
70708;SHT30;58277;47.316;18.908;2022-12-29T17:22:00;1.06;91.02
70708;SHT30;58277;47.316;18.908;2022-12-29T17:24:23;1.03;91.17
70708;SHT30;58277;47.316;18.908;2022-12-29T17:26:52;0.96;91.41
70708;SHT30;58277;47.316;18.908;2022-12-29T17:29:30;0.95;91.42
70708;SHT30;58277;47.316;18.908;2022-12-29T17:31:53;0.96;91.47
70708;SHT30;58277;47.316;18.908;2022-12-29T17:34:16;0.96;91.34
70708;SHT30;58277;47.316;18.908;2022-12-29T17:36:39;0.95;91.23
70708;SHT30;58277;47.316;18.908;2022-12-29T17:39:01;0.95;91.14
70708;SHT30;58277;47.316;18.908;2022-12-29T17:41:25;0.90;91.26
70708;SHT30;58277;47.316;18.908;2022-12-29T17:43:47;0.87;91.38
70708;SHT30;58277;47.316;18.908;2022-12-29T17:46:10;0.85;91.45
70708;SHT30;58277;47.316;18.908;2022-12-29T17:48:33;0.85;91.47
70708;SHT30;58277;47.316;18.908;2022-12-29T17:50:57;0.87;91.39
70708;SHT30;58277;47.316;18.908;2022-12-29T17:53:25;0.87;91.39
70708;SHT30;58277;47.316;18.908;2022-12-29T17:55:49;0.85;91.44
70708;SHT30;58277;47.316;18.908;2022-12-29T17:58:24;0.83;91.58
70708;SHT30;58277;47.316;18.908;2022-12-29T18:00:50;0.87;91.59